Time;durP1;ratioP1;P1;durP2;ratioP2;P2;SDS_P1;SDS_P2;PMS_P1;PMS_P2;Temp;Humidity;BMP_temperature;BMP_pressure;BME280_temperature;BME280_humidity;BME280_pressure;Samples;Min_cycle;Max_cycle;Signal;HPM_P1;HPM_P2
2022/07/22 00:00:50;;;;;;;7.70;4.67;;;;;;;;;;6210184;23;20358;-49
2022/07/22 00:03:18;;;;;;;9.55;4.05;;;;;;;;;;6202489;23;20246;-51
2022/07/22 00:05:44;;;;;;;8.70;4.57;;;;;;;;;;6209822;23;20017;-50
2022/07/22 00:08:11;;;;;;;12.40;5.10;;;;;;;;;;6200967;23;20017;-50
2022/07/22 00:10:37;;;;;;;9.75;4.90;;;;;;;;;;6208347;23;20020;-48
2022/07/22 00:13:04;;;;;;;9.05;5.05;;;;;;;;;;6200416;23;20025;-48
2022/07/22 00:15:30;;;;;;;7.35;4.82;;;;;;;;;;6201641;23;20020;-49
2022/07/22 00:17:57;;;;;;;10.07;4.88;;;;;;;;;;6200296;23;20023;-49
2022/07/22 00:20:25;;;;;;;8.25;4.35;;;;;;;;;;6209315;23;20028;-48
2022/07/22 00:22:52;;;;;;;8.75;5.13;;;;;;;;;;6202964;23;20016;-47
2022/07/22 00:25:19;;;;;;;5.63;4.65;;;;;;;;;;6176033;23;20017;-48
2022/07/22 00:27:45;;;;;;;8.02;4.53;;;;;;;;;;6175225;23;20343;-50
2022/07/22 00:30:12;;;;;;;6.63;4.68;;;;;;;;;;6204079;23;20021;-49
2022/07/22 00:32:38;;;;;;;10.00;5.43;;;;;;;;;;6197396;23;20293;-47
2022/07/22 00:35:05;;;;;;;7.63;4.75;;;;;;;;;;6208981;23;20016;-46
2022/07/22 00:37:34;;;;;;;13.60;5.43;;;;;;;;;;6172589;23;20264;-47
2022/07/22 00:40:00;;;;;;;9.27;4.95;;;;;;;;;;6209148;23;20071;-46
2022/07/22 00:42:26;;;;;;;7.03;4.95;;;;;;;;;;6201823;23;20023;-47
2022/07/22 00:44:53;;;;;;;8.27;4.95;;;;;;;;;;6207692;23;20354;-46
2022/07/22 00:47:20;;;;;;;15.48;6.43;;;;;;;;;;6203839;23;20023;-50
2022/07/22 00:49:46;;;;;;;9.57;5.28;;;;;;;;;;6173128;23;20020;-46
2022/07/22 00:52:13;;;;;;;10.73;6.18;;;;;;;;;;6198918;23;20020;-48
2022/07/22 00:54:41;;;;;;;7.80;5.30;;;;;;;;;;6207465;23;20040;-48
2022/07/22 00:57:08;;;;;;;6.07;5.32;;;;;;;;;;6200803;23;20100;-49
2022/07/22 00:59:34;;;;;;;9.38;5.10;;;;;;;;;;6203543;23;20074;-50
2022/07/22 01:02:01;;;;;;;9.10;4.65;;;;;;;;;;6201234;23;20013;-49
2022/07/22 01:04:27;;;;;;;11.93;5.72;;;;;;;;;;6208237;23;20020;-49
2022/07/22 01:06:54;;;;;;;9.32;5.60;;;;;;;;;;6204823;23;20436;-51
2022/07/22 01:09:20;;;;;;;14.50;5.65;;;;;;;;;;6176172;23;20529;-48
2022/07/22 01:11:48;;;;;;;9.45;5.47;;;;;;;;;;6204293;23;20202;-46
2022/07/22 01:14:15;;;;;;;12.32;6.15;;;;;;;;;;6201193;23;20624;-46
2022/07/22 01:16:41;;;;;;;10.65;5.75;;;;;;;;;;6201265;23;20017;-47
2022/07/22 01:19:08;;;;;;;12.77;6.20;;;;;;;;;;6206525;23;20013;-49
2022/07/22 01:21:36;;;;;;;12.57;5.80;;;;;;;;;;6198647;23;20035;-49
2022/07/22 01:24:03;;;;;;;9.15;6.05;;;;;;;;;;6199896;23;20013;-51
2022/07/22 01:26:30;;;;;;;8.50;5.88;;;;;;;;;;6199152;23;20017;-46
2022/07/22 01:28:56;;;;;;;9.30;5.78;;;;;;;;;;6206371;23;20091;-51
2022/07/22 01:31:23;;;;;;;8.30;5.63;;;;;;;;;;6204682;23;20263;-49
2022/07/22 01:33:49;;;;;;;9.77;6.35;;;;;;;;;;6202325;23;20027;-48
2022/07/22 01:36:16;;;;;;;12.82;6.82;;;;;;;;;;6203619;23;20027;-51
2022/07/22 01:38:44;;;;;;;15.38;6.47;;;;;;;;;;6200446;23;20086;-47
2022/07/22 01:41:10;;;;;;;9.00;5.78;;;;;;;;;;6175698;23;20016;-48
2022/07/22 01:43:37;;;;;;;11.20;6.20;;;;;;;;;;6207368;23;20039;-49
2022/07/22 01:46:04;;;;;;;9.80;5.70;;;;;;;;;;6200963;23;20020;-49
2022/07/22 01:48:30;;;;;;;11.38;5.72;;;;;;;;;;6200505;23;20385;-49
2022/07/22 01:50:57;;;;;;;8.85;5.32;;;;;;;;;;6202832;23;20092;-49
2022/07/22 01:53:23;;;;;;;10.23;6.80;;;;;;;;;;6202319;23;20055;-47
2022/07/22 01:55:52;;;;;;;8.30;5.57;;;;;;;;;;6208320;23;20016;-50
2022/07/22 01:58:21;;;;;;;13.02;6.00;;;;;;;;;;6203476;23;20023;-49
2022/07/22 02:00:48;;;;;;;;;;;;;;;;;;6207378;23;20017;-46
2022/07/22 02:03:14;;;;;;;8.98;5.80;;;;;;;;;;6197515;23;19916;-50
2022/07/22 02:05:41;;;;;;;10.27;5.22;;;;;;;;;;6155125;23;20023;-48
2022/07/22 02:08:09;;;;;;;9.05;5.18;;;;;;;;;;6202749;23;20086;-49
2022/07/22 02:10:35;;;;;;;10.60;5.63;;;;;;;;;;6174992;23;20518;-51
2022/07/22 02:13:04;;;;;;;11.13;5.60;;;;;;;;;;6197472;23;20216;-48
2022/07/22 02:15:31;;;;;;;11.10;5.60;;;;;;;;;;6184749;23;20020;-48
2022/07/22 02:17:57;;;;;;;8.65;5.05;;;;;;;;;;6194617;23;20055;-50
2022/07/22 02:20:24;;;;;;;9.45;4.65;;;;;;;;;;6210466;23;20091;-51
2022/07/22 02:22:50;;;;;;;7.60;4.22;;;;;;;;;;6169874;23;20043;-48
2022/07/22 02:25:17;;;;;;;5.93;3.67;;;;;;;;;;6204446;23;20020;-51
2022/07/22 02:27:43;;;;;;;11.50;4.75;;;;;;;;;;6202256;23;20017;-49
2022/07/22 02:30:12;;;;;;;11.30;4.10;;;;;;;;;;6210035;23;20012;-46
2022/07/22 02:32:38;;;;;;;9.23;4.25;;;;;;;;;;6198981;23;20376;-47
2022/07/22 02:35:06;;;;;;;7.10;3.70;;;;;;;;;;6200850;23;20016;-47
2022/07/22 02:37:32;;;;;;;10.20;4.20;;;;;;;;;;6198744;23;20008;-47
2022/07/22 02:39:59;;;;;;;8.30;3.72;;;;;;;;;;6176941;23;20431;-48
2022/07/22 02:42:25;;;;;;;9.50;4.03;;;;;;;;;;6206520;23;20040;-49
2022/07/22 02:44:52;;;;;;;10.25;4.45;;;;;;;;;;6203914;23;20044;-48
2022/07/22 02:47:20;;;;;;;10.35;4.18;;;;;;;;;;6206426;23;20012;-48
2022/07/22 02:49:46;;;;;;;12.57;5.35;;;;;;;;;;6195753;23;20366;-49
2022/07/22 02:52:13;;;;;;;12.32;4.20;;;;;;;;;;6204057;23;20432;-48
2022/07/22 02:54:40;;;;;;;13.80;4.55;;;;;;;;;;6205039;23;20043;-50
2022/07/22 02:57:06;;;;;;;15.27;3.67;;;;;;;;;;6178951;23;20076;-50
2022/07/22 02:59:33;;;;;;;11.50;4.15;;;;;;;;;;6210448;23;20016;-51
2022/07/22 03:01:59;;;;;;;11.05;5.65;;;;;;;;;;6192800;23;20745;-52
2022/07/22 03:04:27;;;;;;;9.52;4.18;;;;;;;;;;6206047;23;20338;-51
2022/07/22 03:06:54;;;;;;;7.63;3.45;;;;;;;;;;6201213;23;20012;-49
2022/07/22 03:09:20;;;;;;;13.70;3.38;;;;;;;;;;6206310;23;20041;-46
2022/07/22 03:11:47;;;;;;;4.90;2.90;;;;;;;;;;6177530;23;20027;-47
2022/07/22 03:14:14;;;;;;;5.50;2.53;;;;;;;;;;6209756;23;20021;-49
2022/07/22 03:16:40;;;;;;;10.05;3.03;;;;;;;;;;6175135;23;20023;-47
2022/07/22 03:19:07;;;;;;;3.70;2.25;;;;;;;;;;6199947;23;20016;-48
2022/07/22 03:21:35;;;;;;;9.30;2.30;;;;;;;;;;6195047;23;20031;-51
2022/07/22 03:24:01;;;;;;;5.18;2.10;;;;;;;;;;6210476;23;20012;-52
2022/07/22 03:26:28;;;;;;;4.65;1.92;;;;;;;;;;6201556;23;20013;-50
2022/07/22 03:28:54;;;;;;;6.80;2.00;;;;;;;;;;6200813;23;20461;-50
2022/07/22 03:31:21;;;;;;;8.13;2.05;;;;;;;;;;6207018;23;20068;-50
2022/07/22 03:33:47;;;;;;;4.95;1.80;;;;;;;;;;6196926;23;20023;-49
2022/07/22 03:36:14;;;;;;;5.30;2.38;;;;;;;;;;6180263;23;20023;-48
2022/07/22 03:38:42;;;;;;;5.10;1.70;;;;;;;;;;6202906;23;20020;-51
2022/07/22 03:41:08;;;;;;;4.53;1.52;;;;;;;;;;6195756;23;20012;-47
2022/07/22 03:43:35;;;;;;;7.32;1.95;;;;;;;;;;6209400;23;20017;-46
2022/07/22 03:46:01;;;;;;;5.38;2.22;;;;;;;;;;6190393;23;20546;-48
2022/07/22 03:48:28;;;;;;;5.43;2.00;;;;;;;;;;6205750;23;20490;-47
2022/07/22 03:50:54;;;;;;;4.30;2.17;;;;;;;;;;6206263;23;20027;-47
2022/07/22 03:53:21;;;;;;;8.57;2.35;;;;;;;;;;6197415;23;20028;-48
2022/07/22 03:55:49;;;;;;;7.15;2.60;;;;;;;;;;6184356;23;20013;-47
2022/07/22 03:58:17;;;;;;;3.15;2.15;;;;;;;;;;6196122;23;20017;-49
2022/07/22 04:00:43;;;;;;;10.82;2.65;;;;;;;;;;6206410;23;20016;-46
2022/07/22 04:03:10;;;;;;;7.00;2.17;;;;;;;;;;6175190;23;20016;-47
2022/07/22 04:05:36;;;;;;;8.38;2.92;;;;;;;;;;6210544;23;20016;-50
2022/07/22 04:08:02;;;;;;;4.93;2.10;;;;;;;;;;6199639;23;20023;-46
2022/07/22 04:10:29;;;;;;;5.68;2.25;;;;;;;;;;6201714;23;20021;-49
2022/07/22 04:12:57;;;;;;;8.88;2.70;;;;;;;;;;6173512;23;20020;-47
2022/07/22 04:15:23;;;;;;;6.70;2.42;;;;;;;;;;6208791;23;20422;-49
2022/07/22 04:17:50;;;;;;;6.63;2.03;;;;;;;;;;6200927;23;20013;-49
2022/07/22 04:20:17;;;;;;;4.20;2.50;;;;;;;;;;6204836;23;20020;-50
2022/07/22 04:22:43;;;;;;;7.93;2.20;;;;;;;;;;6198852;23;20017;-46
2022/07/22 04:25:10;;;;;;;7.25;2.00;;;;;;;;;;6205175;23;20016;-49
2022/07/22 04:27:37;;;;;;;9.18;3.53;;;;;;;;;;6195478;23;20016;-53
2022/07/22 04:30:05;;;;;;;5.95;2.30;;;;;;;;;;6180000;23;20341;-48
2022/07/22 04:32:32;;;;;;;8.00;1.73;;;;;;;;;;6197917;23;20013;-48
2022/07/22 04:35:00;;;;;;;4.95;2.45;;;;;;;;;;6204308;23;20432;-48
2022/07/22 04:37:27;;;;;;;7.30;2.47;;;;;;;;;;6197592;23;20020;-50
2022/07/22 04:39:54;;;;;;;6.38;1.98;;;;;;;;;;6200134;23;20229;-49
2022/07/22 04:42:20;;;;;;;6.45;2.10;;;;;;;;;;6200759;23;20044;-46
2022/07/22 04:44:48;;;;;;;4.47;2.00;;;;;;;;;;6206036;23;20118;-48
2022/07/22 04:47:16;;;;;;;6.38;2.10;;;;;;;;;;6199191;23;20036;-47
2022/07/22 04:49:42;;;;;;;6.68;2.03;;;;;;;;;;6205473;23;20027;-48
2022/07/22 04:52:09;;;;;;;3.83;2.00;;;;;;;;;;6201592;23;20013;-51
2022/07/22 04:54:36;;;;;;;5.88;2.00;;;;;;;;;;6203959;23;20020;-48
2022/07/22 04:57:02;;;;;;;5.63;2.08;;;;;;;;;;6206544;23;20017;-48
2022/07/22 04:59:29;;;;;;;7.03;1.92;;;;;;;;;;6199359;23;20576;-49
2022/07/22 05:01:56;;;;;;;9.15;2.38;;;;;;;;;;6199878;23;20017;-49
2022/07/22 05:04:24;;;;;;;7.43;1.80;;;;;;;;;;6195685;23;20013;-48
2022/07/22 05:06:50;;;;;;;7.82;1.80;;;;;;;;;;6176667;23;20020;-48
2022/07/22 05:09:17;;;;;;;8.27;2.25;;;;;;;;;;6198465;23;20020;-48
2022/07/22 05:11:43;;;;;;;7.43;1.90;;;;;;;;;;6179860;23;20039;-48
2022/07/22 05:14:10;;;;;;;7.60;1.65;;;;;;;;;;6199455;23;20455;-50
2022/07/22 05:16:37;;;;;;;4.97;1.75;;;;;;;;;;6205117;23;20023;-51
2022/07/22 05:19:04;;;;;;;5.60;1.60;;;;;;;;;;6200869;23;20017;-49
2022/07/22 05:21:32;;;;;;;7.03;1.85;;;;;;;;;;6178574;23;20542;-52
2022/07/22 05:23:58;;;;;;;3.33;1.42;;;;;;;;;;6191350;23;20440;-51
2022/07/22 05:26:28;;;;;;;5.45;1.58;;;;;;;;;;6175757;23;20319;-48
2022/07/22 05:28:54;;;;;;;;;;;;;;;;;;6203132;23;20420;-50
2022/07/22 05:31:21;;;;;;;9.48;2.13;;;;;;;;;;6171565;23;19931;-50
2022/07/22 05:33:47;;;;;;;4.50;2.22;;;;;;;;;;6198339;23;20031;-50
2022/07/22 05:36:14;;;;;;;6.80;2.28;;;;;;;;;;6203057;23;20046;-49
2022/07/22 05:38:42;;;;;;;6.82;2.10;;;;;;;;;;6197158;23;20024;-49
2022/07/22 05:41:08;;;;;;;2.50;1.45;;;;;;;;;;6206958;23;20154;-49
2022/07/22 05:43:35;;;;;;;4.22;1.73;;;;;;;;;;6200010;23;20027;-49
2022/07/22 05:46:01;;;;;;;5.47;1.65;;;;;;;;;;6207504;23;20026;-52
2022/07/22 05:48:28;;;;;;;4.70;1.83;;;;;;;;;;6190338;23;20023;-52
2022/07/22 05:50:54;;;;;;;2.05;1.70;;;;;;;;;;6204274;23;20036;-50
2022/07/22 05:53:21;;;;;;;5.07;1.42;;;;;;;;;;6192735;23;20024;-48
2022/07/22 05:55:49;;;;;;;4.30;1.40;;;;;;;;;;6200564;23;20547;-47
2022/07/22 05:58:15;;;;;;;10.18;2.22;;;;;;;;;;6174554;23;20020;-53
2022/07/22 06:00:42;;;;;;;6.40;1.70;;;;;;;;;;6191814;23;20410;-54
2022/07/22 06:03:08;;;;;;;4.18;1.70;;;;;;;;;;6176107;23;20047;-54
2022/07/22 06:05:35;;;;;;;5.00;1.48;;;;;;;;;;6202228;23;20260;-48
2022/07/22 06:08:02;;;;;;;4.38;1.63;;;;;;;;;;6199678;23;20016;-48
2022/07/22 06:10:28;;;;;;;5.82;1.67;;;;;;;;;;6201266;23;20016;-53
2022/07/22 06:12:56;;;;;;;6.18;1.67;;;;;;;;;;6201623;23;20105;-50
2022/07/22 06:15:22;;;;;;;3.13;1.50;;;;;;;;;;6198699;23;20372;-50
2022/07/22 06:17:49;;;;;;;3.80;1.25;;;;;;;;;;6201876;23;20017;-51
2022/07/22 06:20:15;;;;;;;9.45;1.77;;;;;;;;;;6201366;23;20020;-48
2022/07/22 06:22:42;;;;;;;5.90;1.85;;;;;;;;;;6205302;23;20013;-52
2022/07/22 06:25:09;;;;;;;6.05;2.00;;;;;;;;;;6204431;23;20031;-49
2022/07/22 06:27:35;;;;;;;8.38;1.63;;;;;;;;;;6189963;23;20021;-50
2022/07/22 06:30:05;;;;;;;4.72;1.98;;;;;;;;;;6174624;23;20012;-49
2022/07/22 06:32:31;;;;;;;3.95;1.40;;;;;;;;;;6169610;23;20766;-52
2022/07/22 06:34:58;;;;;;;2.65;1.02;;;;;;;;;;6201956;23;20047;-47
2022/07/22 06:37:24;;;;;;;6.70;1.75;;;;;;;;;;6198334;23;20016;-48
2022/07/22 06:39:51;;;;;;;5.00;1.88;;;;;;;;;;6206142;23;20016;-49
2022/07/22 06:42:17;;;;;;;7.95;1.50;;;;;;;;;;6198850;23;20017;-51
2022/07/22 06:44:44;;;;;;;7.55;1.67;;;;;;;;;;6203067;23;20039;-52
2022/07/22 06:47:12;;;;;;;2.85;1.77;;;;;;;;;;6170372;23;20039;-50
2022/07/22 06:49:38;;;;;;;5.45;1.48;;;;;;;;;;6202552;23;20073;-51
2022/07/22 06:52:05;;;;;;;4.13;1.88;;;;;;;;;;6188601;23;20016;-53
2022/07/22 06:54:31;;;;;;;6.63;2.20;;;;;;;;;;6204076;23;20020;-48
2022/07/22 06:56:58;;;;;;;2.70;1.48;;;;;;;;;;6201645;23;20129;-51
2022/07/22 06:59:25;;;;;;;10.30;2.30;;;;;;;;;;6197247;23;20491;-49
2022/07/22 07:01:51;;;;;;;5.72;1.98;;;;;;;;;;6202294;23;20012;-47
2022/07/22 07:04:19;;;;;;;3.67;1.25;;;;;;;;;;6190988;23;20035;-51
2022/07/22 07:06:46;;;;;;;3.17;1.63;;;;;;;;;;6198656;23;20016;-48
2022/07/22 07:09:12;;;;;;;5.47;1.67;;;;;;;;;;6197667;23;20012;-48
2022/07/22 07:11:39;;;;;;;4.18;1.60;;;;;;;;;;6208241;23;20545;-48
2022/07/22 07:14:05;;;;;;;3.83;1.63;;;;;;;;;;6197216;23;20013;-49
2022/07/22 07:16:34;;;;;;;2.65;1.33;;;;;;;;;;6212719;23;20008;-48
2022/07/22 07:19:02;;;;;;;7.30;1.77;;;;;;;;;;6204014;23;20078;-51
2022/07/22 07:21:30;;;;;;;7.40;1.63;;;;;;;;;;6203934;23;20024;-53
2022/07/22 07:23:57;;;;;;;5.15;1.90;;;;;;;;;;6200745;23;20043;-51
2022/07/22 07:26:23;;;;;;;4.43;1.80;;;;;;;;;;6205760;23;20012;-53
2022/07/22 07:28:50;;;;;;;4.85;1.40;;;;;;;;;;6203319;23;20012;-50
2022/07/22 07:31:18;;;;;;;8.95;2.17;;;;;;;;;;6206540;23;20044;-51
2022/07/22 07:33:47;;;;;;;4.63;2.13;;;;;;;;;;6203686;23;20027;-53
2022/07/22 07:36:14;;;;;;;5.93;1.77;;;;;;;;;;6202356;23;20028;-53
2022/07/22 07:38:43;;;;;;;8.35;2.03;;;;;;;;;;6204423;23;20020;-52
2022/07/22 07:41:10;;;;;;;5.45;2.00;;;;;;;;;;6207552;23;20036;-51
2022/07/22 07:43:37;;;;;;;7.38;2.17;;;;;;;;;;6199836;23;20545;-51
2022/07/22 07:46:03;;;;;;;4.03;1.88;;;;;;;;;;6209321;23;20016;-51
2022/07/22 07:48:30;;;;;;;5.60;1.58;;;;;;;;;;6201628;23;20050;-51
2022/07/22 07:50:56;;;;;;;5.95;1.60;;;;;;;;;;6206832;23;20091;-53
2022/07/22 07:53:23;;;;;;;5.68;1.85;;;;;;;;;;6199193;23;20016;-50
2022/07/22 07:55:51;;;;;;;5.45;1.80;;;;;;;;;;6209065;23;20016;-51
2022/07/22 07:58:18;;;;;;;10.80;2.35;;;;;;;;;;6195830;23;20027;-54
2022/07/22 08:00:44;;;;;;;8.93;2.05;;;;;;;;;;6192848;23;20027;-50
2022/07/22 08:03:11;;;;;;;4.22;1.98;;;;;;;;;;6175944;23;20023;-54
2022/07/22 08:05:39;;;;;;;8.05;1.90;;;;;;;;;;6198495;23;20025;-53
2022/07/22 08:08:06;;;;;;;5.63;2.22;;;;;;;;;;6199470;23;20012;-49
2022/07/22 08:10:33;;;;;;;10.27;2.53;;;;;;;;;;6200961;23;20013;-53
2022/07/22 08:13:02;;;;;;;5.03;1.90;;;;;;;;;;6196623;23;20020;-51
2022/07/22 08:15:29;;;;;;;6.93;2.65;;;;;;;;;;6202959;23;20021;-52
2022/07/22 08:17:59;;;;;;;6.55;2.05;;;;;;;;;;6169880;23;20016;-56
2022/07/22 08:20:27;;;;;;;5.63;2.00;;;;;;;;;;6169703;23;20020;-51
2022/07/22 08:22:54;;;;;;;11.07;2.72;;;;;;;;;;6178733;23;20017;-54
2022/07/22 08:25:21;;;;;;;6.10;2.58;;;;;;;;;;6187908;23;20023;-50
2022/07/22 08:27:47;;;;;;;6.40;1.85;;;;;;;;;;6204914;23;20016;-50
2022/07/22 08:30:16;;;;;;;6.57;1.98;;;;;;;;;;6200023;23;20019;-52
2022/07/22 08:32:42;;;;;;;8.77;2.25;;;;;;;;;;6209332;23;20083;-51
2022/07/22 08:35:09;;;;;;;6.65;2.25;;;;;;;;;;6198261;23;20055;-50
2022/07/22 08:37:37;;;;;;;5.25;2.15;;;;;;;;;;6209401;23;20016;-52
2022/07/22 08:40:04;;;;;;;6.22;2.10;;;;;;;;;;6194821;23;20013;-53
2022/07/22 08:42:31;;;;;;;10.40;2.45;;;;;;;;;;6180662;23;20017;-51
2022/07/22 08:44:58;;;;;;;6.55;2.58;;;;;;;;;;6200588;23;20016;-52
2022/07/22 08:47:29;;;;;;;6.18;2.78;;;;;;;;;;6203948;23;20091;-51
2022/07/22 08:49:55;;;;;;;6.10;2.22;;;;;;;;;;6199900;23;20013;-51
2022/07/22 08:52:22;;;;;;;4.53;2.35;;;;;;;;;;6193851;23;20016;-52
2022/07/22 08:54:48;;;;;;;4.18;1.95;;;;;;;;;;6200743;23;20031;-50
2022/07/22 08:57:15;;;;;;;7.45;2.00;;;;;;;;;;6184251;23;20016;-51
2022/07/22 08:59:51;;;;;;;5.18;2.13;;;;;;;;;;6188545;23;20021;-53
2022/07/22 09:02:18;;;;;;;6.30;2.08;;;;;;;;;;6207568;23;20024;-52
2022/07/22 09:04:53;;;;;;;4.70;2.40;;;;;;;;;;6201064;23;20096;-50
2022/07/22 09:07:30;;;;;;;7.20;2.97;;;;;;;;;;6202938;23;20044;-51
2022/07/22 09:09:57;;;;;;;9.13;2.85;;;;;;;;;;6202669;23;20047;-51
2022/07/22 09:12:24;;;;;;;8.88;2.92;;;;;;;;;;6205668;23;20529;-50
2022/07/22 09:14:53;;;;;;;6.05;2.50;;;;;;;;;;6201373;23;20140;-53
2022/07/22 09:17:26;;;;;;;7.47;2.38;;;;;;;;;;6195016;23;20017;-51
2022/07/22 09:19:54;;;;;;;6.85;2.30;;;;;;;;;;6206405;23;20017;-51
2022/07/22 09:22:38;;;;;;;7.68;2.70;;;;;;;;;;6194992;23;20012;-48
2022/07/22 09:25:26;;;;;;;6.55;2.40;;;;;;;;;;6208444;23;20021;-49
2022/07/22 09:27:55;;;;;;;8.43;3.08;;;;;;;;;;6200722;23;20048;-51
2022/07/22 09:30:23;;;;;;;8.48;2.58;;;;;;;;;;6192501;23;20012;-49
2022/07/22 09:32:50;;;;;;;9.65;3.85;;;;;;;;;;6192567;23;20013;-52
2022/07/22 09:35:19;;;;;;;7.00;2.53;;;;;;;;;;6205434;23;20024;-49
2022/07/22 09:37:50;;;;;;;5.75;2.50;;;;;;;;;;6199309;23;20032;-51
2022/07/22 09:40:17;;;;;;;10.32;3.03;;;;;;;;;;6199809;23;20081;-52
2022/07/22 09:42:45;;;;;;;9.73;2.63;;;;;;;;;;6195421;23;20013;-52
2022/07/22 09:45:11;;;;;;;6.78;2.60;;;;;;;;;;6202046;23;20016;-50
2022/07/22 09:47:41;;;;;;;10.43;2.85;;;;;;;;;;6194933;23;20028;-52
2022/07/22 09:50:14;;;;;;;6.57;2.38;;;;;;;;;;6200889;23;20016;-50
2022/07/22 09:52:42;;;;;;;6.00;2.35;;;;;;;;;;6202831;23;20027;-51
2022/07/22 09:55:09;;;;;;;6.68;2.60;;;;;;;;;;6195643;23;20020;-48
2022/07/22 09:57:35;;;;;;;7.95;2.70;;;;;;;;;;6204200;23;20019;-51
2022/07/22 10:00:02;;;;;;;4.70;2.55;;;;;;;;;;6202604;23;20413;-53
2022/07/22 10:02:30;;;;;;;7.55;3.28;;;;;;;;;;6208634;23;20031;-51
2022/07/22 10:04:56;;;;;;;5.57;2.67;;;;;;;;;;6196128;23;20079;-53
2022/07/22 10:07:23;;;;;;;5.03;2.55;;;;;;;;;;6202240;23;20013;-50
2022/07/22 10:09:52;;;;;;;6.22;2.28;;;;;;;;;;6189421;23;20036;-53
2022/07/22 10:12:19;;;;;;;7.07;2.63;;;;;;;;;;6205897;23;20020;-51
2022/07/22 10:14:46;;;;;;;2.53;2.20;;;;;;;;;;6194867;23;20017;-47
2022/07/22 10:17:13;;;;;;;7.68;3.00;;;;;;;;;;6201344;23;20021;-49
2022/07/22 10:19:40;;;;;;;4.75;2.60;;;;;;;;;;6193782;23;20017;-49
2022/07/22 10:22:26;;;;;;;5.35;2.67;;;;;;;;;;6203364;23;20068;-50
2022/07/22 10:25:01;;;;;;;6.78;2.47;;;;;;;;;;6191460;23;20022;-50
2022/07/22 10:27:43;;;;;;;4.70;2.35;;;;;;;;;;6193292;23;20084;-50
2022/07/22 10:30:10;;;;;;;4.68;2.88;;;;;;;;;;6206948;23;20039;-50
2022/07/22 10:32:37;;;;;;;5.95;2.58;;;;;;;;;;6199120;23;20029;-49
2022/07/22 10:35:22;;;;;;;6.00;3.08;;;;;;;;;;6206246;23;20047;-48
2022/07/22 10:37:49;;;;;;;5.57;2.30;;;;;;;;;;6193152;23;20318;-48
2022/07/22 10:40:19;;;;;;;10.10;2.95;;;;;;;;;;6210795;23;20040;-52
2022/07/22 10:43:19;;;;;;;6.78;2.42;;;;;;;;;;6195672;23;20032;-51
2022/07/22 10:45:47;;;;;;;6.22;3.60;;;;;;;;;;6098430;23;20304;-49
2022/07/22 10:48:15;;;;;;;8.10;3.40;;;;;;;;;;6090929;23;20018;-52
2022/07/22 10:50:56;;;;;;;4.60;2.78;;;;;;;;;;6141293;23;20028;-54
2022/07/22 10:53:24;;;;;;;7.97;3.08;;;;;;;;;;6202519;23;20016;-50
2022/07/22 10:56:06;;;;;;;7.22;3.33;;;;;;;;;;6196583;23;20021;-50
2022/07/22 10:58:54;;;;;;;10.10;3.08;;;;;;;;;;6209473;23;20095;-58
2022/07/22 11:01:22;;;;;;;4.65;2.92;;;;;;;;;;6140716;23;20046;-49
2022/07/22 11:03:50;;;;;;;6.60;3.28;;;;;;;;;;6197270;23;20020;-52
2022/07/22 11:06:27;;;;;;;8.73;3.50;;;;;;;;;;6175741;23;20494;-51
2022/07/22 11:08:55;;;;;;;8.75;3.15;;;;;;;;;;6170067;23;20085;-53
2022/07/22 11:11:43;;;;;;;7.40;3.13;;;;;;;;;;6196968;23;20043;-52
2022/07/22 11:14:14;;;;;;;5.68;3.78;;;;;;;;;;6185602;23;20020;-51
2022/07/22 11:16:41;;;;;;;8.05;3.58;;;;;;;;;;6178238;23;20027;-51
2022/07/22 11:19:07;;;;;;;6.57;3.22;;;;;;;;;;6164574;23;20026;-51
2022/07/22 11:21:35;;;;;;;11.07;3.80;;;;;;;;;;6207204;23;20043;-49
2022/07/22 11:24:02;;;;;;;7.45;3.75;;;;;;;;;;6198965;23;20032;-51
2022/07/22 11:26:34;;;;;;;8.10;3.22;;;;;;;;;;6210404;23;20029;-51
2022/07/22 11:29:01;;;;;;;9.20;2.83;;;;;;;;;;6192700;23;20186;-53
2022/07/22 11:31:29;;;;;;;4.00;2.88;;;;;;;;;;6210058;23;20016;-53
2022/07/22 11:34:05;;;;;;;10.23;3.70;;;;;;;;;;6194604;23;20012;-52
2022/07/22 11:36:33;;;;;;;5.05;3.70;;;;;;;;;;6208202;23;20335;-51
2022/07/22 11:38:59;;;;;;;9.15;2.95;;;;;;;;;;6187940;23;20103;-52
2022/07/22 11:41:29;;;;;;;3.92;3.22;;;;;;;;;;6202763;23;20028;-53
2022/07/22 11:43:55;;;;;;;10.32;3.03;;;;;;;;;;6195514;23;20013;-53
2022/07/22 11:46:23;;;;;;;7.55;3.38;;;;;;;;;;6176611;23;20017;-48
2022/07/22 11:48:51;;;;;;;6.82;3.17;;;;;;;;;;6168451;23;20031;-48
2022/07/22 11:51:18;;;;;;;6.28;2.88;;;;;;;;;;6204088;23;20017;-49
2022/07/22 11:53:45;;;;;;;7.75;3.67;;;;;;;;;;6194137;23;20012;-50
2022/07/22 11:56:12;;;;;;;6.70;3.10;;;;;;;;;;6205451;23;20020;-51
2022/07/22 11:58:40;;;;;;;5.78;3.55;;;;;;;;;;6209356;23;20385;-53
2022/07/22 12:01:07;;;;;;;7.28;3.30;;;;;;;;;;6188067;23;20017;-52
2022/07/22 12:03:34;;;;;;;8.55;3.33;;;;;;;;;;6205435;23;20021;-50
2022/07/22 12:06:03;;;;;;;2.72;2.40;;;;;;;;;;6201316;23;20024;-52
2022/07/22 12:08:29;;;;;;;6.43;3.20;;;;;;;;;;6207161;23;20021;-49
2022/07/22 12:10:56;;;;;;;7.03;2.65;;;;;;;;;;6192906;23;20023;-52
2022/07/22 12:13:28;;;;;;;4.07;2.63;;;;;;;;;;6203830;23;20016;-51
2022/07/22 12:15:54;;;;;;;9.35;3.92;;;;;;;;;;6200448;23;20045;-54
2022/07/22 12:18:21;;;;;;;5.32;2.60;;;;;;;;;;6201557;23;20023;-49
2022/07/22 12:20:49;;;;;;;3.88;2.47;;;;;;;;;;6175059;23;20013;-50
2022/07/22 12:23:17;;;;;;;5.28;2.70;;;;;;;;;;6201610;23;20389;-51
2022/07/22 12:25:50;;;;;;;3.95;2.67;;;;;;;;;;6201910;23;20373;-49
2022/07/22 12:28:17;;;;;;;7.10;2.83;;;;;;;;;;6212061;23;20103;-52
2022/07/22 12:30:43;;;;;;;9.10;2.75;;;;;;;;;;6146866;23;20016;-53
2022/07/22 12:33:13;;;;;;;6.63;2.45;;;;;;;;;;6198343;23;20020;-52
2022/07/22 12:35:40;;;;;;;5.25;2.78;;;;;;;;;;6176249;23;20326;-48
2022/07/22 12:38:07;;;;;;;8.18;3.05;;;;;;;;;;6192577;23;20013;-52
2022/07/22 12:40:36;;;;;;;6.70;3.03;;;;;;;;;;6198412;23;20574;-50
2022/07/22 12:43:03;;;;;;;5.10;2.90;;;;;;;;;;6203285;23;20067;-53
2022/07/22 12:45:30;;;;;;;6.35;2.92;;;;;;;;;;6197685;23;20020;-49
2022/07/22 12:47:59;;;;;;;9.15;3.35;;;;;;;;;;6195265;23;20039;-54
2022/07/22 12:50:27;;;;;;;3.42;2.20;;;;;;;;;;6191424;23;20499;-52
2022/07/22 12:52:54;;;;;;;4.88;2.70;;;;;;;;;;6199012;23;20351;-50
2022/07/22 12:55:21;;;;;;;3.25;2.03;;;;;;;;;;6206717;23;20016;-53
2022/07/22 12:57:50;;;;;;;8.48;3.22;;;;;;;;;;6165895;23;20600;-53
2022/07/22 13:00:17;;;;;;;7.53;2.58;;;;;;;;;;6196307;23;20017;-54
2022/07/22 13:02:44;;;;;;;5.07;2.78;;;;;;;;;;6205857;23;20028;-51
2022/07/22 13:05:10;;;;;;;4.97;2.60;;;;;;;;;;6170055;23;20082;-51
2022/07/22 13:07:37;;;;;;;4.95;2.40;;;;;;;;;;6193399;23;20024;-51
2022/07/22 13:10:04;;;;;;;4.85;2.30;;;;;;;;;;6196205;23;20012;-52
2022/07/22 13:12:30;;;;;;;3.83;2.13;;;;;;;;;;6203791;23;20589;-53
2022/07/22 13:14:58;;;;;;;3.70;2.22;;;;;;;;;;6190171;23;20391;-52
2022/07/22 13:17:25;;;;;;;3.78;2.50;;;;;;;;;;6200178;23;20021;-52
2022/07/22 13:19:51;;;;;;;9.07;2.80;;;;;;;;;;6194266;23;20086;-53
2022/07/22 13:22:18;;;;;;;6.13;2.33;;;;;;;;;;6191581;23;20331;-53
2022/07/22 13:24:44;;;;;;;5.13;2.25;;;;;;;;;;6171433;23;20139;-55
2022/07/22 13:27:11;;;;;;;5.53;2.40;;;;;;;;;;6184752;23;20021;-50
2022/07/22 13:29:38;;;;;;;6.65;2.47;;;;;;;;;;6182895;23;20021;-54
2022/07/22 13:32:06;;;;;;;5.88;2.38;;;;;;;;;;6204545;23;20043;-53
2022/07/22 13:34:33;;;;;;;4.37;2.50;;;;;;;;;;6192528;23;20458;-51
2022/07/22 13:37:01;;;;;;;5.45;2.47;;;;;;;;;;6173714;23;20329;-51
2022/07/22 13:39:27;;;;;;;6.97;2.38;;;;;;;;;;6194290;23;20016;-51
2022/07/22 13:41:54;;;;;;;6.15;2.08;;;;;;;;;;6200861;23;20016;-50
2022/07/22 13:44:21;;;;;;;7.07;2.08;;;;;;;;;;6192021;23;20342;-50
2022/07/22 13:46:49;;;;;;;4.35;2.00;;;;;;;;;;6169280;23;20301;-48
2022/07/22 13:49:17;;;;;;;3.97;2.22;;;;;;;;;;6168734;23;20399;-50
2022/07/22 13:51:44;;;;;;;4.90;2.50;;;;;;;;;;6201475;23;20043;-51
2022/07/22 13:54:10;;;;;;;7.13;3.08;;;;;;;;;;6166806;23;20020;-52
2022/07/22 13:56:37;;;;;;;8.45;2.90;;;;;;;;;;6169442;23;20336;-52
2022/07/22 13:59:03;;;;;;;5.78;2.35;;;;;;;;;;6205407;23;20019;-57
2022/07/22 14:01:31;;;;;;;4.38;2.25;;;;;;;;;;6189515;23;20736;-50
2022/07/22 14:04:00;;;;;;;4.97;2.28;;;;;;;;;;6204608;23;20021;-54
2022/07/22 14:06:28;;;;;;;3.78;2.25;;;;;;;;;;6203824;23;20484;-53
2022/07/22 14:08:54;;;;;;;4.57;2.53;;;;;;;;;;6206770;23;20039;-50
2022/07/22 14:11:21;;;;;;;2.92;2.20;;;;;;;;;;6195942;23;20017;-51
2022/07/22 14:13:48;;;;;;;2.88;1.90;;;;;;;;;;6193253;23;20088;-52
2022/07/22 14:18:59;;;;;;;6.28;2.47;;;;;;;;;;6167967;23;20400;-48
2022/07/22 14:21:25;;;;;;;6.00;2.35;;;;;;;;;;6198299;23;20047;-54
2022/07/22 14:23:53;;;;;;;4.53;1.90;;;;;;;;;;6200548;23;20222;-51
2022/07/22 14:26:20;;;;;;;5.03;2.63;;;;;;;;;;6176541;23;20016;-53
2022/07/22 14:28:47;;;;;;;4.93;2.35;;;;;;;;;;6176254;23;20012;-52
2022/07/22 14:31:13;;;;;;;5.00;2.75;;;;;;;;;;6171668;23;20086;-52
2022/07/22 14:33:40;;;;;;;6.03;2.58;;;;;;;;;;6209014;23;20517;-50
2022/07/22 14:36:07;;;;;;;4.60;1.83;;;;;;;;;;6191950;23;20032;-52
2022/07/22 14:38:33;;;;;;;4.55;2.40;;;;;;;;;;6202901;23;20012;-51
2022/07/22 14:41:01;;;;;;;5.43;2.20;;;;;;;;;;6197304;23;20017;-51
2022/07/22 14:43:28;;;;;;;5.80;2.60;;;;;;;;;;6204793;23;20016;-51
2022/07/22 14:45:54;;;;;;;4.03;2.50;;;;;;;;;;6200253;23;20017;-51